Pleasanton, Texas
Current Conditions -  °F | °C
As of 1:35 PM on Tuesday 21 Oct 2014 (Local Time) from KPEZ Reporting Station
Clear Clear  
Wind Chill: 83°   Ceiling: Unl
Heat Index: 83°   Visibility: 10mi
Dew Point: 56°   Wind: 9mph
Humidity: 39%   Direction: 60°ENE
Pressure: 30.02"   Gusts: 18mph
Location:  28.97°N, 98.48°W
Report Text: KPEZ 211835Z AUTO 06008G16KT 10SM CLR 28/13 A3002 RMK AO2 T02840131
Loading
Personal Weather Stations






























Interactive Weather Map
Tropical Storm Tracking
New forecast layout! Learn more

10-Day Weather Forecast

Advertisements
Track Severe Weather on mobile